createdAt,value
2022-11-22T00:00:21.932Z,96990.72
2022-11-22T00:02:48.663Z,96982.09
2022-11-22T00:05:15.298Z,96983.75
2022-11-22T00:07:41.920Z,96981.22
2022-11-22T00:10:11.663Z,96976.00
2022-11-22T00:12:38.661Z,96968.22
2022-11-22T00:15:06.109Z,96966.56
2022-11-22T00:17:33.383Z,96963.06
2022-11-22T00:20:02.273Z,96976.06
2022-11-22T00:22:28.761Z,96966.56
2022-11-22T00:24:55.302Z,96965.72
2022-11-22T00:27:21.821Z,96968.25
2022-11-22T00:29:48.287Z,96959.59
2022-11-22T00:32:14.846Z,96954.38
2022-11-22T00:34:41.377Z,96956.97
2022-11-22T00:37:07.932Z,96950.06
2022-11-22T00:39:37.598Z,96957.06
2022-11-22T00:42:04.180Z,96946.63
2022-11-22T00:44:33.694Z,96948.41
2022-11-22T00:47:00.220Z,96948.41
2022-11-22T00:49:26.729Z,96946.72
2022-11-22T00:51:56.800Z,96943.28
2022-11-22T00:54:23.296Z,96950.22
2022-11-22T00:56:49.768Z,96949.34
2022-11-22T00:59:16.279Z,96939.81
2022-11-22T01:01:42.906Z,96930.28
2022-11-22T01:04:09.757Z,96921.59
2022-11-22T01:06:36.234Z,96932.09
2022-11-22T01:09:06.101Z,96927.75
2022-11-22T01:11:32.607Z,96917.38
2022-11-22T01:13:59.121Z,96931.25
2022-11-22T01:16:25.585Z,96924.31
2022-11-22T01:18:52.203Z,96913.88
2022-11-22T01:21:18.659Z,96908.69
2022-11-22T01:23:45.393Z,96917.38
2022-11-22T01:26:12.441Z,96913.03
2022-11-22T01:28:38.933Z,96908.69
2022-11-22T01:31:05.422Z,96906.09
2022-11-22T01:33:34.752Z,96892.22
2022-11-22T01:36:01.225Z,96885.28
2022-11-22T01:38:27.721Z,96886.13
2022-11-22T01:40:54.479Z,96881.75
2022-11-22T01:43:23.308Z,96886.06
2022-11-22T01:45:57.961Z,96883.47
2022-11-22T01:48:31.440Z,96879.13
2022-11-22T01:51:06.780Z,96876.53
2022-11-22T01:53:40.069Z,96871.34
2022-11-22T01:56:11.464Z,96862.66
2022-11-22T01:58:40.024Z,96860.94
2022-11-22T02:01:06.980Z,96859.25
2022-11-22T02:03:39.135Z,96863.53
2022-11-22T02:06:06.685Z,96852.28
2022-11-22T02:08:42.025Z,96864.41
2022-11-22T02:11:10.916Z,96866.13
2022-11-22T02:13:42.347Z,96870.50
2022-11-22T02:16:10.157Z,96872.25
2022-11-22T02:18:40.162Z,96868.81
2022-11-22T02:21:08.470Z,96867.06
2022-11-22T02:23:55.858Z,96878.34
2022-11-22T02:26:27.032Z,96873.19
2022-11-22T02:28:57.723Z,96863.66
2022-11-22T02:31:53.237Z,96855.84
2022-11-22T02:34:19.702Z,96859.31
2022-11-22T02:36:50.208Z,96868.00
2022-11-22T02:39:20.328Z,96861.94
2022-11-22T02:41:47.975Z,96865.41
2022-11-22T02:44:15.235Z,96864.53
2022-11-22T02:46:53.488Z,96863.69
2022-11-22T02:49:27.822Z,96863.69
2022-11-22T02:51:54.636Z,96861.06
2022-11-22T02:54:21.349Z,96868.88
2022-11-22T02:56:47.904Z,96861.94
2022-11-22T02:59:14.372Z,96863.66
2022-11-22T03:01:41.576Z,96855.81
2022-11-22T03:04:08.037Z,96862.75
2022-11-22T03:06:34.548Z,96861.00
2022-11-22T03:09:00.995Z,96860.13
2022-11-22T03:11:27.510Z,96854.91
2022-11-22T03:13:53.996Z,96856.59
2022-11-22T03:16:20.511Z,96862.66
2022-11-22T03:18:46.955Z,96855.72
2022-11-22T03:21:13.558Z,96847.94
2022-11-22T03:23:40.011Z,96856.56
2022-11-22T03:26:11.121Z,96861.72
2022-11-22T03:28:37.922Z,96865.22
2022-11-22T03:31:08.174Z,96866.13
2022-11-22T03:33:35.670Z,96866.09
2022-11-22T03:36:03.732Z,96870.44
2022-11-22T03:38:30.243Z,96866.09
2022-11-22T03:40:56.734Z,96860.06
2022-11-22T03:43:23.725Z,96851.41
2022-11-22T03:45:50.198Z,96843.63
2022-11-22T03:48:16.902Z,96836.72
2022-11-22T03:50:43.733Z,96831.50
2022-11-22T03:53:10.568Z,96835.84
2022-11-22T03:55:37.109Z,96831.50
2022-11-22T03:58:04.301Z,96842.78
2022-11-22T04:00:31.413Z,96823.72
2022-11-22T04:02:58.010Z,96833.25
2022-11-22T04:05:24.819Z,96840.25
2022-11-22T04:07:56.092Z,96839.38
2022-11-22T04:10:23.957Z,96841.13
2022-11-22T04:12:50.572Z,96847.19
2022-11-22T04:15:17.123Z,96843.72
2022-11-22T04:17:45.362Z,96839.38
2022-11-22T04:20:34.324Z,96839.38
2022-11-22T04:23:14.775Z,96832.44
2022-11-22T04:25:46.962Z,96832.44
2022-11-22T04:28:15.254Z,96822.91
2022-11-22T04:31:00.509Z,96830.72
2022-11-22T04:33:27.324Z,96824.63
2022-11-22T04:35:57.763Z,96828.97
2022-11-22T04:38:24.728Z,96829.91
2022-11-22T04:40:54.762Z,96836.88
2022-11-22T04:43:41.069Z,96831.66
2022-11-22T04:46:07.572Z,96826.47
2022-11-22T04:48:34.217Z,96836.91
2022-11-22T04:51:19.680Z,96831.69
2022-11-22T04:53:46.254Z,96841.28
2022-11-22T04:56:13.297Z,96846.47
2022-11-22T04:58:39.816Z,96849.97
2022-11-22T05:01:06.671Z,96849.09
2022-11-22T05:03:33.831Z,96857.81
2022-11-22T05:06:08.900Z,96853.44
2022-11-22T05:08:35.377Z,96852.59
2022-11-22T05:11:01.862Z,96850.88
2022-11-22T05:13:34.232Z,96855.16
2022-11-22T05:16:02.463Z,96856.91
2022-11-22T05:18:29.718Z,96856.91
2022-11-22T05:20:56.736Z,96853.41
2022-11-22T05:23:42.713Z,96855.16
2022-11-22T05:26:10.714Z,96855.16
2022-11-22T05:28:38.507Z,96850.81
2022-11-22T05:31:17.112Z,96861.19
2022-11-22T05:33:45.687Z,96865.53
2022-11-22T05:36:13.143Z,96858.59
2022-11-22T05:38:39.971Z,96858.56
2022-11-22T05:41:09.017Z,96862.03
2022-11-22T05:43:36.494Z,96862.06
2022-11-22T05:46:11.959Z,96858.59
2022-11-22T05:48:40.917Z,96843.84
2022-11-22T05:51:09.488Z,96840.38
2022-11-22T05:53:36.810Z,96847.34
2022-11-22T05:56:05.460Z,96849.94
2022-11-22T05:58:32.030Z,96843.88
2022-11-22T06:01:09.650Z,96857.75
2022-11-22T06:03:37.139Z,96857.75
2022-11-22T06:06:05.100Z,96862.97
2022-11-22T06:08:33.145Z,96856.91
2022-11-22T06:11:06.424Z,96864.72
2022-11-22T06:13:37.742Z,96866.44
2022-11-22T06:16:06.257Z,96868.19
2022-11-22T06:18:32.856Z,96866.44
2022-11-22T06:21:00.862Z,96875.13
2022-11-22T06:23:28.263Z,96881.19
2022-11-22T06:25:59.791Z,96878.53
2022-11-22T06:28:30.482Z,96886.34
2022-11-22T06:31:11.336Z,96887.22
2022-11-22T06:33:38.455Z,96884.66
2022-11-22T06:36:10.733Z,96896.75
2022-11-22T06:38:38.535Z,96895.03
2022-11-22T06:41:08.078Z,96899.38
2022-11-22T06:43:35.724Z,96907.19
2022-11-22T06:46:04.181Z,96921.97
2022-11-22T06:48:33.200Z,96906.34
2022-11-22T06:51:07.835Z,96910.69
2022-11-22T06:53:51.261Z,96915.03
2022-11-22T06:56:24.021Z,96922.84
2022-11-22T06:58:52.038Z,96925.47
2022-11-22T07:01:21.344Z,96912.44
2022-11-22T07:03:48.755Z,96909.88
2022-11-22T07:06:17.465Z,96909.88
2022-11-22T07:08:44.331Z,96907.28
2022-11-22T07:11:13.273Z,96912.50
2022-11-22T07:13:40.522Z,96917.72
2022-11-22T07:16:12.171Z,96917.75
2022-11-22T07:18:39.362Z,96915.16
2022-11-22T07:21:12.425Z,96914.28
2022-11-22T07:23:41.532Z,96918.63
2022-11-22T07:26:08.031Z,96912.56
2022-11-22T07:28:34.603Z,96926.44
2022-11-22T07:31:03.891Z,96932.53
2022-11-22T07:33:30.734Z,96931.66
2022-11-22T07:36:04.260Z,96929.84
2022-11-22T07:38:31.029Z,96932.47
2022-11-22T07:40:57.493Z,96931.59
2022-11-22T07:43:23.988Z,96929.03
2022-11-22T07:45:50.614Z,96929.91
2022-11-22T07:48:17.285Z,96927.31
2022-11-22T07:50:43.723Z,96933.38
2022-11-22T07:53:10.453Z,96946.41
2022-11-22T07:55:37.007Z,96942.06
2022-11-22T07:58:03.490Z,96949.88
2022-11-22T08:00:30.173Z,96948.16
2022-11-22T08:02:57.648Z,96949.06
2022-11-22T08:05:24.100Z,96945.59
2022-11-22T08:07:52.540Z,96942.13
2022-11-22T08:10:22.704Z,96938.69
2022-11-22T08:12:49.336Z,96946.50
2022-11-22T08:15:17.263Z,96956.94
2022-11-22T08:17:44.180Z,96964.75
2022-11-22T08:20:11.290Z,96963.00
2022-11-22T08:22:39.037Z,96978.66
2022-11-22T08:25:07.861Z,96981.25
2022-11-22T08:27:34.306Z,96979.50
2022-11-22T08:30:00.923Z,96984.72
2022-11-22T08:32:27.374Z,96986.47
2022-11-22T08:34:53.883Z,96992.56
2022-11-22T08:37:20.335Z,96990.81
2022-11-22T08:39:46.829Z,96994.34
2022-11-22T08:42:13.283Z,96990.03
2022-11-22T08:44:39.847Z,96991.72
2022-11-22T08:47:06.312Z,96996.94
2022-11-22T08:49:33.197Z,97002.16
2022-11-22T08:51:59.893Z,97003.03
2022-11-22T08:54:26.361Z,96996.06
2022-11-22T08:56:52.851Z,97002.16
2022-11-22T08:59:19.375Z,97007.38
2022-11-22T09:01:46.016Z,97009.97
2022-11-22T09:04:12.588Z,97015.19
2022-11-22T09:09:41.772Z,97018.66
2022-11-22T09:12:08.162Z,97028.25
2022-11-22T09:14:34.680Z,97026.53
2022-11-22T09:17:01.225Z,97027.41
2022-11-22T09:19:28.009Z,97033.47
2022-11-22T09:21:54.873Z,97028.31
2022-11-22T09:24:21.343Z,97041.34
2022-11-22T09:26:47.823Z,97041.38
2022-11-22T09:29:15.639Z,97050.91
2022-11-22T09:31:42.672Z,97052.69
2022-11-22T09:34:09.191Z,97051.81
2022-11-22T09:36:35.968Z,97045.75
2022-11-22T09:39:02.455Z,97050.13
2022-11-22T09:41:50.648Z,97051.91
2022-11-22T09:44:30.112Z,97049.31
2022-11-22T09:47:05.116Z,97052.78
2022-11-22T09:50:25.627Z,97068.44
2022-11-22T09:52:59.634Z,97061.50
2022-11-22T09:55:30.777Z,97056.28
2022-11-22T09:58:09.998Z,97058.94
2022-11-22T10:00:36.615Z,97057.19
2022-11-22T10:03:15.305Z,97059.81
2022-11-22T10:06:03.966Z,97058.06
2022-11-22T10:08:57.773Z,97054.59
2022-11-22T10:11:42.974Z,97052.00
2022-11-22T10:14:17.562Z,97058.97
2022-11-22T10:17:36.565Z,97061.56
2022-11-22T10:20:20.565Z,97058.09
2022-11-22T10:22:48.767Z,97054.56
2022-11-22T10:25:40.491Z,97059.75
2022-11-22T10:28:23.190Z,97051.03
2022-11-22T10:31:14.415Z,97052.75
2022-11-22T10:34:03.313Z,97053.56
2022-11-22T10:36:35.656Z,97056.16
2022-11-22T10:39:28.932Z,97058.66
2022-11-22T10:42:30.923Z,97050.81
2022-11-22T10:45:10.053Z,97051.69
2022-11-22T10:48:01.269Z,97037.72
2022-11-22T10:50:54.267Z,97030.63
2022-11-22T10:53:27.181Z,97021.09
2022-11-22T10:55:57.337Z,97016.81
2022-11-22T10:58:34.368Z,97021.16
2022-11-22T11:01:31.049Z,97020.38
2022-11-22T11:03:59.919Z,97019.50
2022-11-22T11:07:04.678Z,97013.44
2022-11-22T11:12:38.711Z,97001.19
2022-11-22T11:15:15.723Z,97016.88
2022-11-22T11:17:45.736Z,97014.25
2022-11-22T11:20:22.771Z,97008.16
2022-11-22T11:23:13.637Z,97000.31
2022-11-22T11:25:44.661Z,96997.72
2022-11-22T11:28:21.067Z,97001.19
2022-11-22T11:30:52.543Z,97000.28
2022-11-22T11:33:29.572Z,97000.28
2022-11-22T11:36:08.703Z,97007.28
2022-11-22T11:38:48.925Z,97004.69
2022-11-22T11:41:38.667Z,97006.41
2022-11-22T11:44:29.618Z,96995.97
2022-11-22T11:46:56.238Z,97002.09
2022-11-22T11:49:26.089Z,97006.47
2022-11-22T11:51:56.989Z,97004.72
2022-11-22T11:54:39.918Z,97007.28
2022-11-22T11:57:11.877Z,97000.31
2022-11-22T11:59:38.222Z,97012.44
2022-11-22T12:02:10.527Z,97009.81
2022-11-22T12:04:46.345Z,97011.53
2022-11-22T12:07:27.757Z,97008.81
2022-11-22T12:09:55.941Z,97018.41
2022-11-22T12:12:43.621Z,97019.16
2022-11-22T12:15:20.684Z,97020.88
2022-11-22T12:17:57.201Z,97035.78
2022-11-22T12:20:36.243Z,97030.56
2022-11-22T12:23:14.774Z,97027.09
2022-11-22T12:25:43.340Z,97018.31
2022-11-22T12:28:21.536Z,97022.53
2022-11-22T12:31:15.427Z,97027.75
2022-11-22T12:33:47.416Z,97025.16
2022-11-22T12:36:33.138Z,97019.84
2022-11-22T12:39:02.902Z,97019.78
2022-11-22T12:41:32.049Z,97014.47
2022-11-22T12:44:02.347Z,97012.69
2022-11-22T12:46:40.171Z,97017.84
2022-11-22T12:49:32.464Z,97015.19
2022-11-22T12:52:17.741Z,97008.13
2022-11-22T12:55:04.735Z,97015.03
2022-11-22T12:58:17.512Z,97012.34
2022-11-22T13:01:03.465Z,97011.44
2022-11-22T13:03:55.880Z,97017.50
2022-11-22T13:06:27.777Z,97009.66
2022-11-22T13:09:04.051Z,97014.91
2022-11-22T13:11:47.552Z,97014.06
2022-11-22T13:14:30.215Z,97020.22
2022-11-22T13:16:57.163Z,97019.28
2022-11-22T13:19:26.287Z,97034.09
2022-11-22T13:22:31.778Z,97024.53
2022-11-22T13:25:32.265Z,97017.50
2022-11-22T13:28:02.458Z,97016.69
2022-11-22T13:30:30.618Z,97027.19
2022-11-22T13:32:59.417Z,97025.47
2022-11-22T13:35:38.749Z,97023.75
2022-11-22T13:38:19.218Z,97015.03
2022-11-22T13:40:53.824Z,97008.88
2022-11-22T13:43:22.656Z,97015.03
2022-11-22T13:46:01.315Z,97003.66
2022-11-22T13:48:39.890Z,97008.00
2022-11-22T13:51:11.785Z,97007.19
2022-11-22T13:53:49.219Z,97002.03
2022-11-22T13:56:15.603Z,96995.03
2022-11-22T13:58:51.041Z,96988.03
2022-11-22T14:01:36.190Z,96995.94
2022-11-22T14:04:19.659Z,97003.88
2022-11-22T14:06:52.149Z,97003.03
2022-11-22T14:10:05.368Z,97010.03
2022-11-22T14:13:01.488Z,97017.00
2022-11-22T14:15:52.032Z,97017.84
2022-11-22T14:18:27.474Z,97017.00
2022-11-22T14:21:00.336Z,97010.03
2022-11-22T14:24:04.233Z,97010.97
2022-11-22T14:26:49.457Z,97011.78
2022-11-22T14:29:40.493Z,97014.47
2022-11-22T14:32:17.034Z,97024.94
2022-11-22T14:35:05.316Z,97007.50
2022-11-22T14:37:34.882Z,96997.00
2022-11-22T14:40:15.550Z,97003.13
2022-11-22T14:42:42.995Z,97007.50
2022-11-22T14:45:12.283Z,97004.88
2022-11-22T14:47:43.410Z,97019.75
2022-11-22T14:50:18.799Z,97014.50
2022-11-22T14:52:47.098Z,97018.03
2022-11-22T14:55:21.311Z,97012.81
2022-11-22T14:57:56.936Z,97014.59
2022-11-22T15:00:25.233Z,97029.47
2022-11-22T15:03:16.560Z,97025.97
2022-11-22T15:09:11.525Z,97034.69
2022-11-22T15:09:22.470Z,97038.22
2022-11-22T15:11:55.341Z,97040.91
2022-11-22T15:57:49.015Z,97088.97
2022-11-22T16:00:27.990Z,97088.09
2022-11-22T16:03:06.704Z,97094.28
2022-11-22T16:06:06.352Z,97094.25
2022-11-22T16:08:22.353Z,97090.81
2022-11-22T16:10:51.208Z,97089.91
2022-11-22T16:13:20.654Z,97095.97
2022-11-22T16:16:12.978Z,97098.56
2022-11-22T16:18:40.304Z,97096.78
2022-11-22T16:21:07.169Z,97097.69
2022-11-22T16:23:35.270Z,97094.19
2022-11-22T16:26:24.942Z,97095.06
2022-11-22T16:28:56.674Z,97108.13
2022-11-22T16:31:31.440Z,97110.69
2022-11-22T16:33:58.535Z,97105.47
2022-11-22T16:36:32.094Z,97110.66
2022-11-22T16:38:58.646Z,97106.34
2022-11-22T16:41:27.693Z,97115.91
2022-11-22T16:44:11.584Z,97108.00
2022-11-22T16:46:40.482Z,97119.38
2022-11-22T16:49:17.869Z,97125.50
2022-11-22T16:51:44.876Z,97134.22
2022-11-22T16:54:14.970Z,97132.47
2022-11-22T16:56:41.691Z,97127.22
2022-11-22T16:59:12.580Z,97125.47
2022-11-22T17:01:41.403Z,97133.34
2022-11-22T17:04:24.179Z,97123.72
2022-11-22T17:06:51.693Z,97121.94
2022-11-22T17:09:18.527Z,97120.22
2022-11-22T17:11:47.439Z,97114.97
2022-11-22T17:14:15.563Z,97117.56
2022-11-22T17:16:42.794Z,97110.63
2022-11-22T17:19:24.155Z,97115.00
2022-11-22T17:21:56.583Z,97109.75
2022-11-22T17:24:23.897Z,97110.63
2022-11-22T17:26:50.403Z,97109.75
2022-11-22T17:29:35.333Z,97108.00
2022-11-22T17:32:03.578Z,97108.91
2022-11-22T17:34:30.323Z,97100.16
2022-11-22T17:36:57.000Z,97103.66
2022-11-22T17:39:23.465Z,97110.63
2022-11-22T17:41:50.115Z,97111.53
2022-11-22T17:44:17.917Z,97122.88
2022-11-22T17:46:44.787Z,97122.00
2022-11-22T17:49:15.753Z,97120.25
2022-11-22T17:51:46.655Z,97122.88
2022-11-22T17:54:13.103Z,97128.09
2022-11-22T17:56:39.854Z,97127.19
2022-11-22T17:59:06.760Z,97113.16
2022-11-22T18:01:33.822Z,97114.09
2022-11-22T18:04:00.289Z,97108.88
2022-11-22T18:06:26.823Z,97112.38
2022-11-22T18:08:53.370Z,97107.13
2022-11-22T18:11:20.220Z,97105.38
2022-11-22T18:13:47.084Z,97105.34
2022-11-22T18:16:15.742Z,97093.09
2022-11-22T18:18:58.805Z,97090.44
2022-11-22T18:21:30.080Z,97095.69
2022-11-22T18:24:00.661Z,97095.66
2022-11-22T18:26:43.404Z,97100.00
2022-11-22T18:32:00.585Z,97111.38
2022-11-22T18:34:30.247Z,97112.22
2022-11-22T18:37:04.830Z,97108.75
2022-11-22T18:39:34.780Z,97123.59
2022-11-22T18:42:02.394Z,97116.59
2022-11-22T18:44:29.021Z,97111.34
2022-11-22T18:46:55.677Z,97116.63
2022-11-22T18:49:22.490Z,97114.03
2022-11-22T18:51:48.988Z,97086.94
2022-11-22T18:54:16.055Z,97104.41
2022-11-22T18:56:42.584Z,97104.38
2022-11-22T18:59:12.715Z,97109.59
2022-11-22T19:01:39.990Z,97115.72
2022-11-22T19:04:06.804Z,97106.06
2022-11-22T19:06:33.306Z,97121.81
2022-11-22T19:09:01.064Z,97128.81
2022-11-22T19:11:29.816Z,97118.34
2022-11-22T19:13:56.876Z,97133.19
2022-11-22T19:16:25.715Z,97126.19
2022-11-22T19:18:52.384Z,97127.94
2022-11-22T19:21:21.521Z,97121.81
2022-11-22T19:23:49.801Z,97130.53
2022-11-22T19:26:20.452Z,97129.69
2022-11-22T19:28:48.322Z,97118.25
2022-11-22T19:31:19.863Z,97117.38
2022-11-22T19:33:47.004Z,97123.47
2022-11-22T19:36:19.526Z,97132.22
2022-11-22T19:38:46.680Z,97140.97
2022-11-22T19:41:16.745Z,97142.72
2022-11-22T19:43:44.237Z,97132.25
2022-11-22T19:46:10.789Z,97133.97
2022-11-22T19:48:39.127Z,97137.47
2022-11-22T19:51:14.225Z,97139.25
2022-11-22T19:53:44.590Z,97136.63
2022-11-22T19:56:21.576Z,97144.53
2022-11-22T19:58:53.267Z,97149.78
2022-11-22T20:01:21.566Z,97151.53
2022-11-22T20:03:52.300Z,97153.28
2022-11-22T20:06:19.605Z,97157.63
2022-11-22T20:08:46.478Z,97162.00
2022-11-22T20:11:15.291Z,97158.53
2022-11-22T20:13:44.376Z,97172.50
2022-11-22T20:16:25.008Z,97165.47
2022-11-22T20:19:05.217Z,97169.78
2022-11-22T20:21:33.655Z,97168.91
2022-11-22T20:24:00.922Z,97172.44
2022-11-22T20:26:28.246Z,97161.09
2022-11-22T20:28:57.102Z,97172.44
2022-11-22T20:31:24.212Z,97170.69
2022-11-22T20:33:52.967Z,97168.94
2022-11-22T20:36:22.479Z,97170.69
2022-11-22T20:38:50.521Z,97170.66
2022-11-22T20:41:19.448Z,97174.16
2022-11-22T20:43:46.034Z,97167.22
2022-11-22T20:46:17.952Z,97181.22
2022-11-22T20:48:45.501Z,97175.97
2022-11-22T20:51:18.821Z,97177.69
2022-11-22T20:53:45.855Z,97182.03
2022-11-22T20:56:12.984Z,97176.78
2022-11-22T20:58:40.260Z,97179.41
2022-11-22T21:01:17.863Z,97181.16
2022-11-22T21:03:44.555Z,97166.31
2022-11-22T21:06:12.890Z,97158.44
2022-11-22T21:08:40.044Z,97161.94
2022-11-22T21:11:07.663Z,97168.94
2022-11-22T21:13:34.574Z,97165.41
2022-11-22T21:16:15.665Z,97166.28
2022-11-22T21:18:54.387Z,97174.16
2022-11-22T21:21:25.003Z,97172.44
2022-11-22T21:23:53.926Z,97172.47
2022-11-22T21:26:21.691Z,97177.69
2022-11-22T21:28:49.217Z,97182.94
2022-11-22T21:31:16.676Z,97179.47
2022-11-22T21:33:43.463Z,97182.03
2022-11-22T21:36:10.176Z,97190.75
2022-11-22T21:38:38.508Z,97190.72
2022-11-22T21:41:32.109Z,97186.34
2022-11-22T21:43:56.922Z,97197.72
2022-11-22T21:46:24.968Z,97186.28
2022-11-22T21:48:51.829Z,97189.75
2022-11-22T21:51:18.450Z,97190.66
2022-11-22T21:53:45.166Z,97182.75
2022-11-22T21:56:11.626Z,97180.91
2022-11-22T21:58:38.119Z,97182.69
2022-11-22T22:01:09.540Z,97185.34
2022-11-22T22:03:40.179Z,97194.06
2022-11-22T22:06:10.070Z,97197.50
2022-11-22T22:08:40.780Z,97200.13
2022-11-22T22:11:07.985Z,97193.06
2022-11-22T22:13:34.622Z,97190.44
2022-11-22T22:16:06.460Z,97193.00
2022-11-22T22:18:37.046Z,97186.91
2022-11-22T22:21:06.030Z,97190.34
2022-11-22T22:23:34.320Z,97198.22
2022-11-22T22:26:02.709Z,97199.09
2022-11-22T22:28:31.643Z,97187.75
2022-11-22T22:31:08.686Z,97197.38
2022-11-22T22:33:37.161Z,97190.44
2022-11-22T22:36:05.285Z,97201.81
2022-11-22T22:38:32.503Z,97208.00
2022-11-22T22:41:01.090Z,97207.94
2022-11-22T22:43:32.697Z,97211.44
2022-11-22T22:46:12.923Z,97201.81
2022-11-22T22:48:39.761Z,97212.38
2022-11-22T22:51:14.807Z,97200.16
2022-11-22T22:53:42.392Z,97197.53
2022-11-22T22:56:09.947Z,97204.50
2022-11-22T22:58:36.900Z,97197.50
2022-11-22T23:01:25.134Z,97214.13
2022-11-22T23:04:06.520Z,97208.84
2022-11-22T23:06:36.494Z,97213.22
2022-11-22T23:09:05.850Z,97218.50
2022-11-22T23:11:52.122Z,97217.66
2022-11-22T23:14:21.588Z,97214.16
2022-11-22T23:16:56.005Z,97220.22
2022-11-22T23:19:24.141Z,97226.38
2022-11-22T23:21:50.730Z,97221.16
2022-11-22T23:24:17.322Z,97233.41
2022-11-22T23:26:43.849Z,97231.63
2022-11-22T23:29:10.607Z,97229.91
2022-11-22T23:31:37.813Z,97240.41
2022-11-22T23:34:04.774Z,97238.66
2022-11-22T23:36:34.797Z,97234.31
2022-11-22T23:39:04.091Z,97239.53
2022-11-22T23:41:30.623Z,97233.41
2022-11-22T23:43:57.207Z,97242.13
2022-11-22T23:46:27.336Z,97242.16
2022-11-22T23:48:59.351Z,97239.56
2022-11-22T23:51:26.658Z,97243.88
2022-11-22T23:53:57.540Z,97242.94
2022-11-22T23:56:24.697Z,97239.44
2022-11-22T23:58:51.784Z,97233.34
